sensor_id;sensor_type;location;lat;lon;timestamp;temperature;humidity
5154;DHT22;2595;53.584;10.084;2023-01-29T00:01:51;3.60;99.90
5154;DHT22;2595;53.584;10.084;2023-01-29T00:04:17;3.70;99.90
5154;DHT22;2595;53.584;10.084;2023-01-29T00:06:43;3.70;99.90
5154;DHT22;2595;53.584;10.084;2023-01-29T00:09:09;3.70;99.90
5154;DHT22;2595;53.584;10.084;2023-01-29T00:11:35;3.70;99.90
5154;DHT22;2595;53.584;10.084;2023-01-29T00:14:01;3.70;99.90
5154;DHT22;2595;53.584;10.084;2023-01-29T00:16:26;3.70;99.90
5154;DHT22;2595;53.584;10.084;2023-01-29T00:18:52;3.70;99.90
5154;DHT22;2595;53.584;10.084;2023-01-29T00:21:20;3.70;99.90
5154;DHT22;2595;53.584;10.084;2023-01-29T00:23:47;3.70;99.90
5154;DHT22;2595;53.584;10.084;2023-01-29T00:26:13;3.70;99.90
5154;DHT22;2595;53.584;10.084;2023-01-29T00:28:39;3.70;99.90
5154;DHT22;2595;53.584;10.084;2023-01-29T00:31:13;3.70;99.90
5154;DHT22;2595;53.584;10.084;2023-01-29T00:33:39;3.70;99.90
5154;DHT22;2595;53.584;10.084;2023-01-29T00:36:07;3.70;99.90
5154;DHT22;2595;53.584;10.084;2023-01-29T00:38:33;3.70;99.90
5154;DHT22;2595;53.584;10.084;2023-01-29T00:41:26;3.60;99.90
5154;DHT22;2595;53.584;10.084;2023-01-29T00:44:10;3.70;99.90
5154;DHT22;2595;53.584;10.084;2023-01-29T00:46:54;3.70;99.90
5154;DHT22;2595;53.584;10.084;2023-01-29T00:49:20;3.60;99.90
5154;DHT22;2595;53.584;10.084;2023-01-29T00:51:45;3.70;99.90
5154;DHT22;2595;53.584;10.084;2023-01-29T00:54:30;3.70;99.90
5154;DHT22;2595;53.584;10.084;2023-01-29T00:56:55;3.60;99.90
5154;DHT22;2595;53.584;10.084;2023-01-29T00:59:21;3.70;99.90
5154;DHT22;2595;53.584;10.084;2023-01-29T01:01:46;3.70;99.90
5154;DHT22;2595;53.584;10.084;2023-01-29T01:04:30;3.70;99.90
5154;DHT22;2595;53.584;10.084;2023-01-29T01:06:56;3.70;99.90
5154;DHT22;2595;53.584;10.084;2023-01-29T01:09:21;3.80;99.90
5154;DHT22;2595;53.584;10.084;2023-01-29T01:12:06;3.80;99.90
5154;DHT22;2595;53.584;10.084;2023-01-29T01:14:32;3.80;99.90
5154;DHT22;2595;53.584;10.084;2023-01-29T01:17:00;3.80;99.90
5154;DHT22;2595;53.584;10.084;2023-01-29T01:19:26;3.80;99.90
5154;DHT22;2595;53.584;10.084;2023-01-29T01:21:52;3.80;99.90
5154;DHT22;2595;53.584;10.084;2023-01-29T01:24:17;3.80;99.90
5154;DHT22;2595;53.584;10.084;2023-01-29T01:26:44;3.80;99.90
5154;DHT22;2595;53.584;10.084;2023-01-29T01:29:11;3.80;99.90
5154;DHT22;2595;53.584;10.084;2023-01-29T01:31:36;3.80;99.90
5154;DHT22;2595;53.584;10.084;2023-01-29T01:34:02;3.80;99.90
5154;DHT22;2595;53.584;10.084;2023-01-29T01:36:27;3.80;99.90
5154;DHT22;2595;53.584;10.084;2023-01-29T01:38:53;3.80;99.90
5154;DHT22;2595;53.584;10.084;2023-01-29T01:41:20;3.80;99.90
5154;DHT22;2595;53.584;10.084;2023-01-29T01:43:55;3.80;99.90
5154;DHT22;2595;53.584;10.084;2023-01-29T01:46:22;3.80;99.90
5154;DHT22;2595;53.584;10.084;2023-01-29T01:49:01;3.90;99.90
5154;DHT22;2595;53.584;10.084;2023-01-29T01:51:30;3.80;99.90
5154;DHT22;2595;53.584;10.084;2023-01-29T01:54:06;3.90;99.90
5154;DHT22;2595;53.584;10.084;2023-01-29T01:56:39;3.90;99.90
5154;DHT22;2595;53.584;10.084;2023-01-29T01:59:11;3.90;99.90
5154;DHT22;2595;53.584;10.084;2023-01-29T02:01:38;3.90;99.90
5154;DHT22;2595;53.584;10.084;2023-01-29T02:04:10;3.90;99.90
5154;DHT22;2595;53.584;10.084;2023-01-29T02:06:57;3.90;99.90
5154;DHT22;2595;53.584;10.084;2023-01-29T02:09:57;3.90;99.90
5154;DHT22;2595;53.584;10.084;2023-01-29T02:12:25;3.90;99.90
5154;DHT22;2595;53.584;10.084;2023-01-29T02:14:53;3.90;99.90
5154;DHT22;2595;53.584;10.084;2023-01-29T02:17:19;3.90;99.90
5154;DHT22;2595;53.584;10.084;2023-01-29T02:20:11;3.90;99.90
5154;DHT22;2595;53.584;10.084;2023-01-29T02:28:40;3.90;99.90
5154;DHT22;2595;53.584;10.084;2023-01-29T02:34:12;4.00;99.90
5154;DHT22;2595;53.584;10.084;2023-01-29T02:39:49;3.90;99.90
5154;DHT22;2595;53.584;10.084;2023-01-29T02:42:28;3.90;99.90
5154;DHT22;2595;53.584;10.084;2023-01-29T02:45:14;3.90;99.90
5154;DHT22;2595;53.584;10.084;2023-01-29T02:47:51;3.90;99.90
5154;DHT22;2595;53.584;10.084;2023-01-29T02:50:33;3.90;99.90
5154;DHT22;2595;53.584;10.084;2023-01-29T02:55:55;3.90;99.90
5154;DHT22;2595;53.584;10.084;2023-01-29T02:58:40;3.90;99.90
5154;DHT22;2595;53.584;10.084;2023-01-29T03:01:16;3.90;99.90
5154;DHT22;2595;53.584;10.084;2023-01-29T03:03:50;3.90;99.90
5154;DHT22;2595;53.584;10.084;2023-01-29T03:06:21;3.90;99.90
5154;DHT22;2595;53.584;10.084;2023-01-29T03:08:56;3.90;99.90
5154;DHT22;2595;53.584;10.084;2023-01-29T03:11:23;3.90;99.90
5154;DHT22;2595;53.584;10.084;2023-01-29T03:14:02;3.90;99.90
5154;DHT22;2595;53.584;10.084;2023-01-29T03:16:48;3.90;99.90
5154;DHT22;2595;53.584;10.084;2023-01-29T03:19:19;3.90;99.90
5154;DHT22;2595;53.584;10.084;2023-01-29T03:21:55;3.90;99.90
5154;DHT22;2595;53.584;10.084;2023-01-29T03:27:29;3.90;99.90
5154;DHT22;2595;53.584;10.084;2023-01-29T03:30:16;3.90;99.90
5154;DHT22;2595;53.584;10.084;2023-01-29T03:33:05;3.90;99.90
5154;DHT22;2595;53.584;10.084;2023-01-29T03:35:37;4.00;99.90
5154;DHT22;2595;53.584;10.084;2023-01-29T03:38:09;3.90;99.90
5154;DHT22;2595;53.584;10.084;2023-01-29T03:43:50;3.90;99.90
5154;DHT22;2595;53.584;10.084;2023-01-29T03:46:28;3.90;99.90
5154;DHT22;2595;53.584;10.084;2023-01-29T03:49:05;3.90;99.90
5154;DHT22;2595;53.584;10.084;2023-01-29T03:51:43;3.90;99.90
5154;DHT22;2595;53.584;10.084;2023-01-29T04:02:04;3.90;99.90
5154;DHT22;2595;53.584;10.084;2023-01-29T04:04:34;3.90;99.90
5154;DHT22;2595;53.584;10.084;2023-01-29T04:07:18;3.90;99.90
5154;DHT22;2595;53.584;10.084;2023-01-29T04:09:49;3.90;99.90
5154;DHT22;2595;53.584;10.084;2023-01-29T04:12:19;3.90;99.90
5154;DHT22;2595;53.584;10.084;2023-01-29T04:14:47;3.90;99.90
5154;DHT22;2595;53.584;10.084;2023-01-29T04:17:24;3.90;99.90
5154;DHT22;2595;53.584;10.084;2023-01-29T04:19:52;3.90;99.90
5154;DHT22;2595;53.584;10.084;2023-01-29T04:22:25;3.90;99.90
5154;DHT22;2595;53.584;10.084;2023-01-29T04:24:54;3.90;99.90
5154;DHT22;2595;53.584;10.084;2023-01-29T04:27:44;3.90;99.90
5154;DHT22;2595;53.584;10.084;2023-01-29T04:33:09;3.90;99.90
5154;DHT22;2595;53.584;10.084;2023-01-29T04:41:09;3.80;99.90
5154;DHT22;2595;53.584;10.084;2023-01-29T04:46:25;3.80;99.90
5154;DHT22;2595;53.584;10.084;2023-01-29T04:49:26;3.80;99.90
5154;DHT22;2595;53.584;10.084;2023-01-29T04:54:48;3.90;99.90
5154;DHT22;2595;53.584;10.084;2023-01-29T04:57:27;3.90;99.90
5154;DHT22;2595;53.584;10.084;2023-01-29T05:00:05;3.90;99.90
5154;DHT22;2595;53.584;10.084;2023-01-29T05:02:36;3.80;99.90
5154;DHT22;2595;53.584;10.084;2023-01-29T05:05:04;3.90;99.90
5154;DHT22;2595;53.584;10.084;2023-01-29T05:07:31;3.80;99.90
5154;DHT22;2595;53.584;10.084;2023-01-29T05:09:58;3.80;99.90
5154;DHT22;2595;53.584;10.084;2023-01-29T05:12:25;3.90;99.90
5154;DHT22;2595;53.584;10.084;2023-01-29T05:14:55;3.90;99.90
5154;DHT22;2595;53.584;10.084;2023-01-29T05:17:22;3.80;99.90
5154;DHT22;2595;53.584;10.084;2023-01-29T05:19:48;3.80;99.90
5154;DHT22;2595;53.584;10.084;2023-01-29T05:22:16;3.80;99.90
5154;DHT22;2595;53.584;10.084;2023-01-29T05:24:42;3.80;99.90
5154;DHT22;2595;53.584;10.084;2023-01-29T05:27:19;3.80;99.90
5154;DHT22;2595;53.584;10.084;2023-01-29T05:30:04;3.80;99.90
5154;DHT22;2595;53.584;10.084;2023-01-29T05:32:30;3.80;99.90
5154;DHT22;2595;53.584;10.084;2023-01-29T05:34:56;3.70;99.90
5154;DHT22;2595;53.584;10.084;2023-01-29T05:37:21;3.70;99.90
5154;DHT22;2595;53.584;10.084;2023-01-29T05:39:47;3.70;99.90
5154;DHT22;2595;53.584;10.084;2023-01-29T05:42:13;3.70;99.90
5154;DHT22;2595;53.584;10.084;2023-01-29T05:44:38;3.70;99.90
5154;DHT22;2595;53.584;10.084;2023-01-29T05:47:04;3.70;99.90
5154;DHT22;2595;53.584;10.084;2023-01-29T05:49:30;3.70;99.90
5154;DHT22;2595;53.584;10.084;2023-01-29T05:51:55;3.70;99.90
5154;DHT22;2595;53.584;10.084;2023-01-29T05:54:21;3.70;99.90
5154;DHT22;2595;53.584;10.084;2023-01-29T05:56:47;3.60;99.90
5154;DHT22;2595;53.584;10.084;2023-01-29T05:59:13;3.60;99.90
5154;DHT22;2595;53.584;10.084;2023-01-29T06:01:39;3.60;99.90
5154;DHT22;2595;53.584;10.084;2023-01-29T06:04:04;3.60;99.90
5154;DHT22;2595;53.584;10.084;2023-01-29T06:06:30;3.60;99.90
5154;DHT22;2595;53.584;10.084;2023-01-29T06:08:56;3.60;99.90
5154;DHT22;2595;53.584;10.084;2023-01-29T06:11:21;3.60;99.90
5154;DHT22;2595;53.584;10.084;2023-01-29T06:13:47;3.60;99.90
5154;DHT22;2595;53.584;10.084;2023-01-29T06:16:13;3.60;99.90
5154;DHT22;2595;53.584;10.084;2023-01-29T06:18:40;3.60;99.90
5154;DHT22;2595;53.584;10.084;2023-01-29T06:21:08;3.60;99.90
5154;DHT22;2595;53.584;10.084;2023-01-29T06:23:34;3.60;99.90
5154;DHT22;2595;53.584;10.084;2023-01-29T06:26:05;3.60;99.90
5154;DHT22;2595;53.584;10.084;2023-01-29T06:28:31;3.60;99.90
5154;DHT22;2595;53.584;10.084;2023-01-29T06:30:58;3.60;99.90
5154;DHT22;2595;53.584;10.084;2023-01-29T06:33:24;3.60;99.90
5154;DHT22;2595;53.584;10.084;2023-01-29T06:35:58;3.60;99.90
5154;DHT22;2595;53.584;10.084;2023-01-29T06:38:24;3.60;99.90
5154;DHT22;2595;53.584;10.084;2023-01-29T06:40:51;3.60;99.90
5154;DHT22;2595;53.584;10.084;2023-01-29T06:43:16;3.60;99.90
5154;DHT22;2595;53.584;10.084;2023-01-29T06:48:12;3.70;99.90
5154;DHT22;2595;53.584;10.084;2023-01-29T06:50:38;3.70;99.90
5154;DHT22;2595;53.584;10.084;2023-01-29T06:53:03;3.70;99.90
5154;DHT22;2595;53.584;10.084;2023-01-29T06:55:29;3.70;99.90
5154;DHT22;2595;53.584;10.084;2023-01-29T06:57:54;3.70;99.90
5154;DHT22;2595;53.584;10.084;2023-01-29T07:00:20;3.70;99.90
5154;DHT22;2595;53.584;10.084;2023-01-29T07:02:48;3.70;99.90
5154;DHT22;2595;53.584;10.084;2023-01-29T07:05:14;3.70;99.90
5154;DHT22;2595;53.584;10.084;2023-01-29T07:07:39;3.70;99.90
5154;DHT22;2595;53.584;10.084;2023-01-29T07:10:05;3.70;99.90
5154;DHT22;2595;53.584;10.084;2023-01-29T07:12:31;3.80;99.90
5154;DHT22;2595;53.584;10.084;2023-01-29T07:14:57;3.80;99.90
5154;DHT22;2595;53.584;10.084;2023-01-29T07:17:23;3.80;99.90
5154;DHT22;2595;53.584;10.084;2023-01-29T07:19:48;3.80;99.90
5154;DHT22;2595;53.584;10.084;2023-01-29T07:22:14;3.80;99.90
5154;DHT22;2595;53.584;10.084;2023-01-29T07:24:40;3.80;99.90
5154;DHT22;2595;53.584;10.084;2023-01-29T07:27:06;3.80;99.90
5154;DHT22;2595;53.584;10.084;2023-01-29T07:29:32;3.80;99.90
5154;DHT22;2595;53.584;10.084;2023-01-29T07:31:57;3.80;99.90
5154;DHT22;2595;53.584;10.084;2023-01-29T07:34:23;3.80;99.90
5154;DHT22;2595;53.584;10.084;2023-01-29T07:36:51;3.80;99.90
5154;DHT22;2595;53.584;10.084;2023-01-29T07:39:16;3.80;99.90
5154;DHT22;2595;53.584;10.084;2023-01-29T07:41:42;3.80;99.90
5154;DHT22;2595;53.584;10.084;2023-01-29T07:44:08;3.80;99.90
5154;DHT22;2595;53.584;10.084;2023-01-29T07:46:33;3.80;99.90
5154;DHT22;2595;53.584;10.084;2023-01-29T07:48:59;3.80;99.90
5154;DHT22;2595;53.584;10.084;2023-01-29T07:51:24;3.80;99.90
5154;DHT22;2595;53.584;10.084;2023-01-29T07:53:50;3.80;99.90
5154;DHT22;2595;53.584;10.084;2023-01-29T07:56:15;3.80;99.90
5154;DHT22;2595;53.584;10.084;2023-01-29T07:58:41;3.80;99.90
5154;DHT22;2595;53.584;10.084;2023-01-29T08:01:07;3.80;99.90
5154;DHT22;2595;53.584;10.084;2023-01-29T08:03:33;3.70;99.90
5154;DHT22;2595;53.584;10.084;2023-01-29T08:05:58;3.70;99.90
5154;DHT22;2595;53.584;10.084;2023-01-29T08:08:24;3.80;99.90
5154;DHT22;2595;53.584;10.084;2023-01-29T08:10:50;3.80;99.90
5154;DHT22;2595;53.584;10.084;2023-01-29T08:13:15;3.80;99.90
5154;DHT22;2595;53.584;10.084;2023-01-29T08:15:42;3.80;99.90
5154;DHT22;2595;53.584;10.084;2023-01-29T08:18:09;3.80;99.90
5154;DHT22;2595;53.584;10.084;2023-01-29T08:20:35;3.80;99.90
5154;DHT22;2595;53.584;10.084;2023-01-29T08:23:02;3.80;99.90
5154;DHT22;2595;53.584;10.084;2023-01-29T08:25:29;3.80;99.90
5154;DHT22;2595;53.584;10.084;2023-01-29T08:27:58;3.80;99.90
5154;DHT22;2595;53.584;10.084;2023-01-29T08:30:26;3.80;99.90
5154;DHT22;2595;53.584;10.084;2023-01-29T08:32:51;3.80;99.90
5154;DHT22;2595;53.584;10.084;2023-01-29T08:35:17;3.80;99.90
5154;DHT22;2595;53.584;10.084;2023-01-29T08:37:43;3.80;99.90
5154;DHT22;2595;53.584;10.084;2023-01-29T08:40:09;3.80;99.90
5154;DHT22;2595;53.584;10.084;2023-01-29T08:42:36;3.80;99.90
5154;DHT22;2595;53.584;10.084;2023-01-29T08:45:02;3.80;99.90
5154;DHT22;2595;53.584;10.084;2023-01-29T08:47:28;3.80;99.90
5154;DHT22;2595;53.584;10.084;2023-01-29T08:49:53;3.70;99.90
5154;DHT22;2595;53.584;10.084;2023-01-29T08:52:19;3.70;99.90
5154;DHT22;2595;53.584;10.084;2023-01-29T08:54:44;3.80;99.90
5154;DHT22;2595;53.584;10.084;2023-01-29T08:57:10;3.80;99.90
5154;DHT22;2595;53.584;10.084;2023-01-29T08:59:36;3.80;99.90
5154;DHT22;2595;53.584;10.084;2023-01-29T09:02:02;3.80;99.90
5154;DHT22;2595;53.584;10.084;2023-01-29T09:04:28;3.80;99.90
5154;DHT22;2595;53.584;10.084;2023-01-29T09:06:53;3.80;99.90
5154;DHT22;2595;53.584;10.084;2023-01-29T09:09:19;3.80;99.90
5154;DHT22;2595;53.584;10.084;2023-01-29T09:11:44;3.80;99.90
5154;DHT22;2595;53.584;10.084;2023-01-29T09:14:10;3.80;99.90
5154;DHT22;2595;53.584;10.084;2023-01-29T09:16:37;3.80;99.90
5154;DHT22;2595;53.584;10.084;2023-01-29T09:19:02;3.80;99.90
5154;DHT22;2595;53.584;10.084;2023-01-29T09:21:28;3.80;99.90
5154;DHT22;2595;53.584;10.084;2023-01-29T09:23:53;3.80;99.90
5154;DHT22;2595;53.584;10.084;2023-01-29T09:26:19;3.80;99.90
5154;DHT22;2595;53.584;10.084;2023-01-29T09:28:45;3.90;99.90
5154;DHT22;2595;53.584;10.084;2023-01-29T09:31:10;3.80;99.90
5154;DHT22;2595;53.584;10.084;2023-01-29T09:33:36;3.90;99.90
5154;DHT22;2595;53.584;10.084;2023-01-29T09:36:03;3.90;99.90
5154;DHT22;2595;53.584;10.084;2023-01-29T09:38:28;3.90;99.90
5154;DHT22;2595;53.584;10.084;2023-01-29T09:43:48;4.00;99.90
5154;DHT22;2595;53.584;10.084;2023-01-29T09:46:42;4.00;99.90
5154;DHT22;2595;53.584;10.084;2023-01-29T09:49:27;4.00;99.90
5154;DHT22;2595;53.584;10.084;2023-01-29T09:57:18;4.00;99.90
5154;DHT22;2595;53.584;10.084;2023-01-29T09:59:46;4.00;99.90
5154;DHT22;2595;53.584;10.084;2023-01-29T10:02:40;4.00;99.90
5154;DHT22;2595;53.584;10.084;2023-01-29T10:05:39;4.00;99.90
5154;DHT22;2595;53.584;10.084;2023-01-29T10:13:47;4.10;99.90
5154;DHT22;2595;53.584;10.084;2023-01-29T10:16:29;4.10;99.90
5154;DHT22;2595;53.584;10.084;2023-01-29T10:26:23;4.00;99.90
5154;DHT22;2595;53.584;10.084;2023-01-29T10:28:51;4.10;99.90
5154;DHT22;2595;53.584;10.084;2023-01-29T10:31:28;4.10;99.90
5154;DHT22;2595;53.584;10.084;2023-01-29T10:37:00;4.10;99.90
5154;DHT22;2595;53.584;10.084;2023-01-29T10:39:29;4.10;99.90
5154;DHT22;2595;53.584;10.084;2023-01-29T10:59:00;4.10;99.90
5154;DHT22;2595;53.584;10.084;2023-01-29T11:01:27;4.10;99.90
5154;DHT22;2595;53.584;10.084;2023-01-29T11:04:02;4.10;99.90
5154;DHT22;2595;53.584;10.084;2023-01-29T11:06:31;4.20;99.90
5154;DHT22;2595;53.584;10.084;2023-01-29T11:11:49;4.20;99.90
5154;DHT22;2595;53.584;10.084;2023-01-29T11:14:25;4.20;99.90
5154;DHT22;2595;53.584;10.084;2023-01-29T11:16:51;4.20;99.90
5154;DHT22;2595;53.584;10.084;2023-01-29T11:19:17;4.20;99.90
5154;DHT22;2595;53.584;10.084;2023-01-29T11:21:57;4.20;99.90
5154;DHT22;2595;53.584;10.084;2023-01-29T11:24:23;4.20;99.90
5154;DHT22;2595;53.584;10.084;2023-01-29T11:26:51;4.20;99.90
5154;DHT22;2595;53.584;10.084;2023-01-29T11:29:28;4.20;99.90
5154;DHT22;2595;53.584;10.084;2023-01-29T11:31:56;4.20;99.90
5154;DHT22;2595;53.584;10.084;2023-01-29T11:34:23;4.20;99.90
5154;DHT22;2595;53.584;10.084;2023-01-29T11:37:15;4.20;99.90
5154;DHT22;2595;53.584;10.084;2023-01-29T11:39:45;4.20;99.90
5154;DHT22;2595;53.584;10.084;2023-01-29T11:42:19;4.30;99.90
5154;DHT22;2595;53.584;10.084;2023-01-29T11:44:45;4.30;99.90
5154;DHT22;2595;53.584;10.084;2023-01-29T11:49:50;4.30;99.90
5154;DHT22;2595;53.584;10.084;2023-01-29T11:52:19;4.30;99.90
5154;DHT22;2595;53.584;10.084;2023-01-29T11:54:58;4.30;99.90
5154;DHT22;2595;53.584;10.084;2023-01-29T11:57:37;4.30;99.90
5154;DHT22;2595;53.584;10.084;2023-01-29T12:00:21;4.30;99.90
5154;DHT22;2595;53.584;10.084;2023-01-29T12:02:56;4.30;99.90
5154;DHT22;2595;53.584;10.084;2023-01-29T12:05:25;4.30;99.90
5154;DHT22;2595;53.584;10.084;2023-01-29T12:07:54;4.40;99.90
5154;DHT22;2595;53.584;10.084;2023-01-29T12:10:41;4.40;99.90
5154;DHT22;2595;53.584;10.084;2023-01-29T12:15:45;4.40;99.90
5154;DHT22;2595;53.584;10.084;2023-01-29T12:18:34;4.40;99.90
5154;DHT22;2595;53.584;10.084;2023-01-29T12:21:03;4.40;99.90
5154;DHT22;2595;53.584;10.084;2023-01-29T12:26:38;4.50;99.90
5154;DHT22;2595;53.584;10.084;2023-01-29T12:29:43;4.40;99.90
5154;DHT22;2595;53.584;10.084;2023-01-29T12:37:53;4.40;99.90
5154;DHT22;2595;53.584;10.084;2023-01-29T12:40:23;4.40;99.90
5154;DHT22;2595;53.584;10.084;2023-01-29T12:42:54;4.40;99.90
5154;DHT22;2595;53.584;10.084;2023-01-29T12:45:23;4.40;99.90
5154;DHT22;2595;53.584;10.084;2023-01-29T12:47:55;4.40;99.90
5154;DHT22;2595;53.584;10.084;2023-01-29T12:50:25;4.40;99.90
5154;DHT22;2595;53.584;10.084;2023-01-29T12:53:01;4.40;99.90
5154;DHT22;2595;53.584;10.084;2023-01-29T12:55:35;4.40;99.90
5154;DHT22;2595;53.584;10.084;2023-01-29T12:58:11;4.40;99.90
5154;DHT22;2595;53.584;10.084;2023-01-29T13:00:42;4.40;99.90
5154;DHT22;2595;53.584;10.084;2023-01-29T13:08:06;4.40;99.90
5154;DHT22;2595;53.584;10.084;2023-01-29T13:10:45;4.40;99.90
5154;DHT22;2595;53.584;10.084;2023-01-29T13:13:32;4.40;99.90
5154;DHT22;2595;53.584;10.084;2023-01-29T13:15:59;4.40;99.90
5154;DHT22;2595;53.584;10.084;2023-01-29T13:18:47;4.40;99.90
5154;DHT22;2595;53.584;10.084;2023-01-29T13:21:24;4.40;99.90
5154;DHT22;2595;53.584;10.084;2023-01-29T13:24:04;4.40;99.90
5154;DHT22;2595;53.584;10.084;2023-01-29T13:26:34;4.40;99.90
5154;DHT22;2595;53.584;10.084;2023-01-29T13:29:00;4.50;99.90
5154;DHT22;2595;53.584;10.084;2023-01-29T13:34:13;4.50;99.90
5154;DHT22;2595;53.584;10.084;2023-01-29T13:36:42;4.50;99.90
5154;DHT22;2595;53.584;10.084;2023-01-29T13:39:22;4.50;99.90
5154;DHT22;2595;53.584;10.084;2023-01-29T13:41:50;4.50;99.90
5154;DHT22;2595;53.584;10.084;2023-01-29T13:46:57;4.50;99.90
5154;DHT22;2595;53.584;10.084;2023-01-29T13:49:42;4.50;99.90
5154;DHT22;2595;53.584;10.084;2023-01-29T13:55:31;4.50;99.90
5154;DHT22;2595;53.584;10.084;2023-01-29T13:57:59;4.50;99.90
5154;DHT22;2595;53.584;10.084;2023-01-29T14:08:02;4.50;99.90
5154;DHT22;2595;53.584;10.084;2023-01-29T14:10:36;4.60;99.90
5154;DHT22;2595;53.584;10.084;2023-01-29T14:15:30;4.50;99.90
5154;DHT22;2595;53.584;10.084;2023-01-29T14:18:17;4.50;99.90
5154;DHT22;2595;53.584;10.084;2023-01-29T14:23:23;4.50;99.90
5154;DHT22;2595;53.584;10.084;2023-01-29T14:25:51;4.50;99.90
5154;DHT22;2595;53.584;10.084;2023-01-29T14:28:25;4.50;99.90
5154;DHT22;2595;53.584;10.084;2023-01-29T14:30:53;4.50;99.90
5154;DHT22;2595;53.584;10.084;2023-01-29T14:33:26;4.50;99.90
5154;DHT22;2595;53.584;10.084;2023-01-29T14:35:55;4.50;99.90
5154;DHT22;2595;53.584;10.084;2023-01-29T14:38:23;4.60;99.90
5154;DHT22;2595;53.584;10.084;2023-01-29T14:40:50;4.50;99.90
5154;DHT22;2595;53.584;10.084;2023-01-29T14:43:25;4.60;99.90
5154;DHT22;2595;53.584;10.084;2023-01-29T14:45:50;4.50;99.90
5154;DHT22;2595;53.584;10.084;2023-01-29T14:48:39;4.50;99.90
5154;DHT22;2595;53.584;10.084;2023-01-29T14:51:13;4.50;99.90
5154;DHT22;2595;53.584;10.084;2023-01-29T14:56:28;4.50;99.90
5154;DHT22;2595;53.584;10.084;2023-01-29T14:59:27;4.50;99.90
5154;DHT22;2595;53.584;10.084;2023-01-29T15:01:55;4.50;99.90
5154;DHT22;2595;53.584;10.084;2023-01-29T15:04:26;4.50;99.90
5154;DHT22;2595;53.584;10.084;2023-01-29T15:13:08;4.50;99.90
5154;DHT22;2595;53.584;10.084;2023-01-29T15:15:24;4.50;99.90
5154;DHT22;2595;53.584;10.084;2023-01-29T15:20:34;4.50;99.90
5154;DHT22;2595;53.584;10.084;2023-01-29T15:23:00;4.40;99.90
5154;DHT22;2595;53.584;10.084;2023-01-29T15:25:45;4.40;99.90
5154;DHT22;2595;53.584;10.084;2023-01-29T15:28:11;4.40;99.90
5154;DHT22;2595;53.584;10.084;2023-01-29T15:30:37;4.40;99.90
5154;DHT22;2595;53.584;10.084;2023-01-29T15:33:05;4.40;99.90
5154;DHT22;2595;53.584;10.084;2023-01-29T15:35:36;4.40;99.90
5154;DHT22;2595;53.584;10.084;2023-01-29T15:38:06;4.40;99.90
5154;DHT22;2595;53.584;10.084;2023-01-29T15:40:38;4.40;99.90
5154;DHT22;2595;53.584;10.084;2023-01-29T15:43:25;4.40;99.90
5154;DHT22;2595;53.584;10.084;2023-01-29T15:45:54;4.40;99.90
5154;DHT22;2595;53.584;10.084;2023-01-29T15:48:29;4.40;99.90
5154;DHT22;2595;53.584;10.084;2023-01-29T15:50:56;4.40;99.90
5154;DHT22;2595;53.584;10.084;2023-01-29T15:53:29;4.40;99.90
5154;DHT22;2595;53.584;10.084;2023-01-29T15:55:56;4.40;99.90
5154;DHT22;2595;53.584;10.084;2023-01-29T15:58:29;4.40;99.90
5154;DHT22;2595;53.584;10.084;2023-01-29T16:00:57;4.40;99.90
5154;DHT22;2595;53.584;10.084;2023-01-29T16:03:25;4.40;99.90
5154;DHT22;2595;53.584;10.084;2023-01-29T16:05:53;4.40;99.90
5154;DHT22;2595;53.584;10.084;2023-01-29T16:08:24;4.40;99.90
5154;DHT22;2595;53.584;10.084;2023-01-29T16:11:04;4.40;99.90
5154;DHT22;2595;53.584;10.084;2023-01-29T16:13:33;4.40;99.90
5154;DHT22;2595;53.584;10.084;2023-01-29T16:16:03;4.40;99.90
5154;DHT22;2595;53.584;10.084;2023-01-29T16:18:32;4.40;99.90
5154;DHT22;2595;53.584;10.084;2023-01-29T16:23:35;4.40;99.90
5154;DHT22;2595;53.584;10.084;2023-01-29T16:26:07;4.40;99.90
5154;DHT22;2595;53.584;10.084;2023-01-29T16:28:39;4.40;99.90
5154;DHT22;2595;53.584;10.084;2023-01-29T16:31:05;4.40;99.90
5154;DHT22;2595;53.584;10.084;2023-01-29T16:33:35;4.40;99.90
5154;DHT22;2595;53.584;10.084;2023-01-29T16:36:12;4.40;99.90
5154;DHT22;2595;53.584;10.084;2023-01-29T16:38:39;4.40;99.90
5154;DHT22;2595;53.584;10.084;2023-01-29T16:44:01;4.40;99.90
5154;DHT22;2595;53.584;10.084;2023-01-29T16:46:37;4.40;99.90
5154;DHT22;2595;53.584;10.084;2023-01-29T16:51:50;4.30;99.90
5154;DHT22;2595;53.584;10.084;2023-01-29T16:54:16;4.40;99.90
5154;DHT22;2595;53.584;10.084;2023-01-29T16:56:47;4.30;99.90
5154;DHT22;2595;53.584;10.084;2023-01-29T16:59:19;4.30;99.90
5154;DHT22;2595;53.584;10.084;2023-01-29T17:01:46;4.30;99.90
5154;DHT22;2595;53.584;10.084;2023-01-29T17:04:16;4.30;99.90
5154;DHT22;2595;53.584;10.084;2023-01-29T17:06:45;4.30;99.90
5154;DHT22;2595;53.584;10.084;2023-01-29T17:09:23;4.30;99.90
5154;DHT22;2595;53.584;10.084;2023-01-29T17:11:59;4.30;99.90
5154;DHT22;2595;53.584;10.084;2023-01-29T17:14:26;4.30;99.90
5154;DHT22;2595;53.584;10.084;2023-01-29T17:17:06;4.30;99.90
5154;DHT22;2595;53.584;10.084;2023-01-29T17:19:38;4.30;99.90
5154;DHT22;2595;53.584;10.084;2023-01-29T17:22:03;4.30;99.90
5154;DHT22;2595;53.584;10.084;2023-01-29T17:24:33;4.40;99.90
5154;DHT22;2595;53.584;10.084;2023-01-29T17:27:00;4.40;99.90
5154;DHT22;2595;53.584;10.084;2023-01-29T17:29:29;4.30;99.90
5154;DHT22;2595;53.584;10.084;2023-01-29T17:31:56;4.40;99.90
5154;DHT22;2595;53.584;10.084;2023-01-29T17:34:24;4.30;99.90
5154;DHT22;2595;53.584;10.084;2023-01-29T17:36:50;4.30;99.90
5154;DHT22;2595;53.584;10.084;2023-01-29T17:39:21;4.30;99.90
5154;DHT22;2595;53.584;10.084;2023-01-29T17:41:52;4.30;99.90
5154;DHT22;2595;53.584;10.084;2023-01-29T17:44:18;4.30;99.90
5154;DHT22;2595;53.584;10.084;2023-01-29T17:46:44;4.30;99.90
5154;DHT22;2595;53.584;10.084;2023-01-29T17:49:24;4.30;99.90
5154;DHT22;2595;53.584;10.084;2023-01-29T17:51:52;4.30;99.90
5154;DHT22;2595;53.584;10.084;2023-01-29T17:54:19;4.30;99.90
5154;DHT22;2595;53.584;10.084;2023-01-29T17:56:45;4.30;99.90
5154;DHT22;2595;53.584;10.084;2023-01-29T17:59:19;4.30;99.90
5154;DHT22;2595;53.584;10.084;2023-01-29T18:01:44;4.20;99.90
5154;DHT22;2595;53.584;10.084;2023-01-29T18:04:11;4.20;99.90
5154;DHT22;2595;53.584;10.084;2023-01-29T18:06:37;4.20;99.90
5154;DHT22;2595;53.584;10.084;2023-01-29T18:09:03;4.10;99.90
5154;DHT22;2595;53.584;10.084;2023-01-29T18:11:29;4.10;99.90
5154;DHT22;2595;53.584;10.084;2023-01-29T18:13:56;4.20;99.90
5154;DHT22;2595;53.584;10.084;2023-01-29T18:16:22;4.10;99.90
5154;DHT22;2595;53.584;10.084;2023-01-29T18:18:49;4.10;99.90
5154;DHT22;2595;53.584;10.084;2023-01-29T18:21:16;4.10;99.90
5154;DHT22;2595;53.584;10.084;2023-01-29T18:23:41;4.10;99.90
5154;DHT22;2595;53.584;10.084;2023-01-29T18:26:10;4.10;99.90
5154;DHT22;2595;53.584;10.084;2023-01-29T18:28:36;4.10;99.90
5154;DHT22;2595;53.584;10.084;2023-01-29T18:31:02;4.10;99.90
5154;DHT22;2595;53.584;10.084;2023-01-29T18:33:28;4.10;99.90
5154;DHT22;2595;53.584;10.084;2023-01-29T18:35:53;4.10;99.90
5154;DHT22;2595;53.584;10.084;2023-01-29T18:38:23;4.10;99.90
5154;DHT22;2595;53.584;10.084;2023-01-29T18:40:49;4.10;99.90
5154;DHT22;2595;53.584;10.084;2023-01-29T18:43:15;4.10;99.90
5154;DHT22;2595;53.584;10.084;2023-01-29T18:45:40;4.10;99.90
5154;DHT22;2595;53.584;10.084;2023-01-29T18:48:06;4.10;99.90
5154;DHT22;2595;53.584;10.084;2023-01-29T18:50:32;4.00;99.90
5154;DHT22;2595;53.584;10.084;2023-01-29T18:52:58;4.00;99.90